Time;durP1;ratioP1;P1;durP2;ratioP2;P2;SDS_P1;SDS_P2;PMS_P1;PMS_P2;Temp;Humidity;BMP_temperature;BMP_pressure;BME280_temperature;BME280_humidity;BME280_pressure;Samples;Min_cycle;Max_cycle;Signal;HPM_P1;HPM_P2
2022/01/24 00:00:23;;;;;;;10.38;3.92;;;;;;;;;;4979955;28;20018;-67
2022/01/24 00:02:50;;;;;;;11.50;4.03;;;;;;;;;;4975704;28;20026;-67
2022/01/24 00:05:19;;;;;;;14.52;4.32;;;;;;;;;;4976857;28;21397;-68
2022/01/24 00:07:52;;;;;;;11.05;4.38;;;;;;;;;;4974310;28;20093;-68
2022/01/24 00:10:25;;;;;;;10.75;4.50;;;;;;;;;;4980469;28;20026;-67
2022/01/24 00:13:45;;;;;;;11.35;4.20;;;;;;;;;;4972757;28;20029;-66
2022/01/24 00:16:15;;;;;;;11.13;3.90;;;;;;;;;;4955321;28;20062;-67
2022/01/24 00:26:56;;;;;;;10.27;3.95;;;;;;;;;;4958947;28;20048;-66
2022/01/24 00:29:34;;;;;;;9.43;3.50;;;;;;;;;;4957329;28;20061;-66
2022/01/24 00:32:01;;;;;;;10.32;3.22;;;;;;;;;;4957445;28;20095;-67
2022/01/24 00:34:32;;;;;;;9.15;2.92;;;;;;;;;;4944469;28;20038;-67
2022/01/24 00:37:01;;;;;;;7.97;2.80;;;;;;;;;;4941597;28;20041;-67
2022/01/24 00:39:28;;;;;;;9.07;2.50;;;;;;;;;;4963956;28;20037;-67
2022/01/24 00:48:01;;;;;;;10.00;3.08;;;;;;;;;;4935141;28;20096;-66
2022/01/24 00:55:49;;;;;;;9.23;3.58;;;;;;;;;;4938136;28;20042;-66
2022/01/24 00:58:17;;;;;;;10.75;3.67;;;;;;;;;;4943453;28;20042;-66
2022/01/24 01:00:45;;;;;;;10.60;3.80;;;;;;;;;;4942791;28;20849;-67
2022/01/24 01:03:14;;;;;;;10.80;3.88;;;;;;;;;;4943119;28;20039;-67
2022/01/24 01:19:41;;;;;;;9.30;3.50;;;;;;;;;;4897375;29;20125;-67
2022/01/24 01:22:09;;;;;;;9.75;3.67;;;;;;;;;;4897982;29;20838;-66
2022/01/24 01:24:42;;;;;;;9.90;3.53;;;;;;;;;;4954124;28;20046;-66
2022/01/24 01:27:18;;;;;;;9.15;3.63;;;;;;;;;;4950455;28;20042;-66
2022/01/24 01:30:00;;;;;;;9.73;3.63;;;;;;;;;;4960779;28;20035;-67
2022/01/24 01:32:53;;;;;;;9.48;3.80;;;;;;;;;;4947843;28;20034;-68
2022/01/24 01:35:44;;;;;;;10.10;3.63;;;;;;;;;;4964527;28;20042;-67
2022/01/24 01:55:25;;;;;;;10.23;3.55;;;;;;;;;;4943156;28;19968;-68
2022/01/24 01:57:52;;;;;;;9.90;3.50;;;;;;;;;;4944826;28;20167;-66
2022/01/24 02:00:19;;;;;;;8.98;2.95;;;;;;;;;;4951043;28;21263;-66
2022/01/24 02:02:47;;;;;;;8.65;2.78;;;;;;;;;;4925828;28;20117;-67
2022/01/24 02:05:15;;;;;;;8.40;3.08;;;;;;;;;;4948754;28;20869;-67
2022/01/24 02:07:50;;;;;;;9.10;3.03;;;;;;;;;;4930386;28;20229;-66
2022/01/24 02:10:25;;;;;;;9.15;3.33;;;;;;;;;;4945452;28;20027;-67
2022/01/24 02:12:55;;;;;;;10.50;4.25;;;;;;;;;;4948769;28;20044;-67
2022/01/24 02:15:34;;;;;;;11.15;3.78;;;;;;;;;;4946836;28;20097;-67
2022/01/24 02:18:24;;;;;;;11.10;4.18;;;;;;;;;;4966120;28;20046;-67
2022/01/24 02:23:45;;;;;;;11.45;4.20;;;;;;;;;;4985774;28;20774;-67
2022/01/24 02:26:20;;;;;;;11.75;4.05;;;;;;;;;;4984629;28;20133;-67
2022/01/24 02:34:28;;;;;;;11.68;3.17;;;;;;;;;;4983930;28;20050;-66
2022/01/24 02:37:00;;;;;;;11.35;3.35;;;;;;;;;;4985991;28;20045;-67
2022/01/24 02:39:52;;;;;;;8.38;2.60;;;;;;;;;;4986324;28;20042;-66
2022/01/24 02:48:27;;;;;;;10.75;3.08;;;;;;;;;;4984962;28;20484;-67
2022/01/24 02:53:35;;;;;;;9.50;2.92;;;;;;;;;;4986763;28;20112;-67
2022/01/24 02:56:13;;;;;;;9.63;2.97;;;;;;;;;;4982914;28;20596;-68
2022/01/24 02:58:40;;;;;;;9.45;3.15;;;;;;;;;;4989723;28;20033;-67
2022/01/24 03:01:07;;;;;;;;;;;;;;;;;;4976805;28;20041;-66
2022/01/24 03:03:37;;;;;;;9.48;3.00;;;;;;;;;;4985245;28;19917;-66
2022/01/24 03:06:06;;;;;;;9.73;2.90;;;;;;;;;;4980628;28;20120;-67
2022/01/24 03:08:37;;;;;;;9.35;2.78;;;;;;;;;;4982543;28;20059;-66
2022/01/24 03:11:06;;;;;;;10.15;3.05;;;;;;;;;;4985156;28;20101;-68
2022/01/24 03:13:34;;;;;;;9.77;2.97;;;;;;;;;;4986784;28;20034;-67
2022/01/24 03:16:03;;;;;;;8.95;2.75;;;;;;;;;;4967041;28;20145;-67
2022/01/24 03:18:29;;;;;;;8.90;2.97;;;;;;;;;;4972315;28;20509;-66
2022/01/24 03:20:57;;;;;;;10.23;3.13;;;;;;;;;;4983317;28;20029;-67
2022/01/24 03:23:25;;;;;;;14.90;3.97;;;;;;;;;;4984430;28;20702;-67
2022/01/24 03:25:53;;;;;;;13.27;4.07;;;;;;;;;;4981455;28;20107;-67
2022/01/24 03:28:22;;;;;;;12.50;3.90;;;;;;;;;;4986777;28;20117;-67
2022/01/24 03:30:49;;;;;;;12.23;3.85;;;;;;;;;;4983158;28;20046;-66
2022/01/24 03:33:17;;;;;;;14.10;4.13;;;;;;;;;;4983442;28;20030;-69
2022/01/24 03:35:48;;;;;;;11.32;3.45;;;;;;;;;;4980046;28;20076;-66
2022/01/24 03:38:16;;;;;;;13.23;4.32;;;;;;;;;;4988787;28;20650;-67
2022/01/24 03:40:44;;;;;;;11.77;3.70;;;;;;;;;;4987518;28;20077;-68
2022/01/24 03:43:12;;;;;;;11.35;3.47;;;;;;;;;;4983561;28;20032;-67
2022/01/24 03:45:47;;;;;;;9.40;3.00;;;;;;;;;;4989926;28;20034;-67
2022/01/24 03:48:37;;;;;;;11.18;3.38;;;;;;;;;;4983271;28;20038;-66
2022/01/24 03:51:05;;;;;;;9.73;3.00;;;;;;;;;;4982242;28;20642;-67
2022/01/24 03:53:33;;;;;;;10.43;2.85;;;;;;;;;;4984628;28;20411;-66
2022/01/24 03:56:02;;;;;;;11.73;3.45;;;;;;;;;;4979148;28;21206;-67
2022/01/24 03:58:28;;;;;;;12.23;3.53;;;;;;;;;;4983022;28;20030;-67
2022/01/24 04:00:58;;;;;;;11.32;3.22;;;;;;;;;;4981648;28;20080;-68
2022/01/24 04:03:25;;;;;;;12.32;3.47;;;;;;;;;;4985386;28;20034;-67
2022/01/24 04:05:53;;;;;;;11.02;3.38;;;;;;;;;;4981622;28;20033;-67
2022/01/24 04:08:22;;;;;;;11.32;3.50;;;;;;;;;;4985102;28;20054;-68
2022/01/24 04:10:53;;;;;;;10.98;3.20;;;;;;;;;;4982685;28;20541;-68
2022/01/24 04:13:37;;;;;;;12.23;3.60;;;;;;;;;;4981850;28;20038;-68
2022/01/24 04:16:29;;;;;;;12.93;4.00;;;;;;;;;;4983318;28;20042;-68
2022/01/24 04:19:34;;;;;;;14.20;3.67;;;;;;;;;;4980697;28;20120;-67
2022/01/24 04:21:55;;;;;;;12.32;4.25;;;;;;;;;;4983613;28;20801;-67
2022/01/24 04:24:24;;;;;;;12.13;4.13;;;;;;;;;;4987047;28;20135;-67
2022/01/24 04:26:51;;;;;;;13.55;4.22;;;;;;;;;;4979889;28;20120;-67
2022/01/24 04:29:24;;;;;;;14.18;4.32;;;;;;;;;;4988522;28;20475;-67
2022/01/24 04:31:50;;;;;;;12.43;4.20;;;;;;;;;;4981461;28;20038;-66
2022/01/24 04:34:19;;;;;;;12.75;3.58;;;;;;;;;;4999971;28;20115;-67
2022/01/24 04:36:48;;;;;;;12.43;3.95;;;;;;;;;;4986076;28;20049;-67
2022/01/24 04:39:16;;;;;;;12.70;3.65;;;;;;;;;;4985503;28;20042;-67
2022/01/24 04:41:48;;;;;;;13.68;3.67;;;;;;;;;;4983445;28;20110;-68
2022/01/24 04:47:15;;;;;;;11.20;3.38;;;;;;;;;;4981428;28;20081;-67
2022/01/24 04:52:41;;;;;;;10.52;3.47;;;;;;;;;;4985128;28;20045;-67
2022/01/24 04:55:09;;;;;;;13.75;4.10;;;;;;;;;;4982097;28;20046;-67
2022/01/24 04:57:36;;;;;;;13.85;3.90;;;;;;;;;;4985827;28;20019;-67
2022/01/24 05:00:06;;;;;;;10.95;3.40;;;;;;;;;;4982052;28;20851;-67
2022/01/24 05:02:33;;;;;;;11.73;3.10;;;;;;;;;;4984459;28;20037;-67
2022/01/24 05:05:00;;;;;;;10.88;3.00;;;;;;;;;;4980770;28;20201;-67
2022/01/24 05:07:28;;;;;;;11.27;3.00;;;;;;;;;;4984562;28;20100;-67
2022/01/24 05:10:12;;;;;;;10.70;3.00;;;;;;;;;;4980863;28;20853;-67
2022/01/24 05:23:47;;;;;;;10.45;3.20;;;;;;;;;;4983998;28;20052;-67
2022/01/24 05:26:15;;;;;;;10.30;3.00;;;;;;;;;;4986746;28;20041;-67
2022/01/24 05:28:43;;;;;;;10.00;3.20;;;;;;;;;;4987221;28;20072;-67
2022/01/24 05:31:11;;;;;;;9.93;2.80;;;;;;;;;;4986781;28;20056;-67
2022/01/24 05:33:38;;;;;;;9.50;2.90;;;;;;;;;;5007072;28;20622;-67
2022/01/24 05:36:06;;;;;;;10.35;2.70;;;;;;;;;;4967625;28;20092;-67
2022/01/24 05:38:35;;;;;;;8.68;2.45;;;;;;;;;;5008679;28;20040;-67
2022/01/24 05:41:05;;;;;;;9.52;2.78;;;;;;;;;;5002713;28;20048;-67
2022/01/24 05:43:35;;;;;;;7.38;2.58;;;;;;;;;;5003820;28;20499;-67
2022/01/24 05:46:03;;;;;;;6.97;2.40;;;;;;;;;;4999618;28;20048;-67
2022/01/24 05:48:30;;;;;;;8.15;2.30;;;;;;;;;;5002675;28;20024;-67
2022/01/24 05:51:01;;;;;;;8.05;2.20;;;;;;;;;;5002469;28;20835;-66
2022/01/24 05:53:29;;;;;;;5.88;2.00;;;;;;;;;;4974700;28;20092;-66
2022/01/24 05:56:02;;;;;;;8.32;2.38;;;;;;;;;;4985926;28;20044;-67
2022/01/24 05:58:30;;;;;;;7.75;2.17;;;;;;;;;;5004432;28;20056;-67
2022/01/24 06:00:57;;;;;;;7.72;2.20;;;;;;;;;;4998611;28;20049;-67
2022/01/24 06:03:28;;;;;;;7.85;2.05;;;;;;;;;;5001972;28;20045;-67
2022/01/24 06:06:03;;;;;;;10.63;2.95;;;;;;;;;;5003748;28;20048;-67
2022/01/24 06:08:30;;;;;;;;;;;;;;;;;;4990680;28;20488;-67
2022/01/24 06:10:59;;;;;;;10.10;3.08;;;;;;;;;;5004709;28;19951;-67
2022/01/24 06:13:26;;;;;;;8.75;3.28;;;;;;;;;;5004426;28;20033;-68
2022/01/24 06:15:53;;;;;;;9.95;2.60;;;;;;;;;;5001083;28;20104;-67
2022/01/24 06:18:21;;;;;;;9.32;2.97;;;;;;;;;;5003619;28;20563;-67
2022/01/24 06:20:50;;;;;;;7.22;2.40;;;;;;;;;;4997021;28;20033;-67
2022/01/24 06:23:19;;;;;;;8.43;2.75;;;;;;;;;;5001500;28;20038;-69
2022/01/24 06:25:49;;;;;;;5.93;2.05;;;;;;;;;;4987425;28;20060;-67
2022/01/24 06:28:22;;;;;;;8.45;2.13;;;;;;;;;;4986320;28;20350;-67
2022/01/24 06:30:49;;;;;;;7.00;2.17;;;;;;;;;;4982926;28;20026;-66
2022/01/24 06:33:17;;;;;;;7.70;2.00;;;;;;;;;;4986197;28;20030;-66
2022/01/24 06:35:46;;;;;;;6.40;1.90;;;;;;;;;;4988165;28;20637;-66
2022/01/24 06:38:12;;;;;;;6.57;2.10;;;;;;;;;;4986387;28;20772;-67
2022/01/24 06:40:39;;;;;;;8.60;2.50;;;;;;;;;;4990409;28;20041;-68
2022/01/24 06:43:06;;;;;;;5.70;2.00;;;;;;;;;;4983803;28;20085;-67
2022/01/24 06:45:33;;;;;;;7.57;1.98;;;;;;;;;;4986395;28;21010;-67
2022/01/24 06:48:00;;;;;;;;;;;;;;;;;;4979374;28;20034;-67
2022/01/24 06:50:27;;;;;;;8.07;1.87;;;;;;;;;;4987247;28;19971;-67
2022/01/24 06:52:54;;;;;;;6.25;1.90;;;;;;;;;;4986415;28;20805;-67
2022/01/24 06:55:22;;;;;;;5.93;1.80;;;;;;;;;;5000888;28;20050;-67
2022/01/24 06:57:50;;;;;;;6.38;2.17;;;;;;;;;;4981427;28;20028;-67
2022/01/24 07:00:22;;;;;;;8.27;2.20;;;;;;;;;;4987398;28;20135;-67
2022/01/24 07:02:49;;;;;;;8.57;2.50;;;;;;;;;;4980634;28;20030;-67
2022/01/24 07:05:16;;;;;;;7.22;2.47;;;;;;;;;;4985740;28;20069;-67
2022/01/24 07:07:43;;;;;;;6.75;2.35;;;;;;;;;;4988255;28;20648;-67
2022/01/24 07:10:12;;;;;;;7.63;2.53;;;;;;;;;;4980149;28;20400;-66
2022/01/24 07:12:40;;;;;;;7.93;2.67;;;;;;;;;;4986531;28;20469;-66
2022/01/24 07:15:13;;;;;;;9.85;2.45;;;;;;;;;;4984694;28;20060;-67
2022/01/24 07:18:14;;;;;;;11.20;2.40;;;;;;;;;;4982441;28;20030;-67
2022/01/24 07:20:45;;;;;;;8.02;2.40;;;;;;;;;;4985396;28;20049;-67
2022/01/24 07:23:11;;;;;;;10.45;2.65;;;;;;;;;;4987624;28;20041;-66
2022/01/24 07:25:38;;;;;;;8.18;2.70;;;;;;;;;;4984534;28;20587;-66
2022/01/24 07:28:05;;;;;;;8.20;2.45;;;;;;;;;;4984646;28;20079;-66
2022/01/24 07:30:34;;;;;;;10.27;2.45;;;;;;;;;;4987247;28;20035;-67
2022/01/24 07:33:02;;;;;;;8.63;2.60;;;;;;;;;;4982656;28;20044;-67
2022/01/24 07:35:32;;;;;;;9.23;2.50;;;;;;;;;;4988458;28;20052;-67
2022/01/24 07:37:58;;;;;;;8.50;2.17;;;;;;;;;;4980674;28;20026;-66
2022/01/24 07:40:24;;;;;;;;;;;;;;;;;;4989738;28;20128;-67
2022/01/24 07:43:07;;;;;;;7.35;2.60;;;;;;;;;;4984088;28;20483;-66
2022/01/24 07:45:38;;;;;;;8.85;2.90;;;;;;;;;;4988155;28;20036;-67
2022/01/24 07:48:07;;;;;;;10.55;2.67;;;;;;;;;;4966440;28;20108;-67
2022/01/24 07:50:37;;;;;;;9.85;2.35;;;;;;;;;;4987232;28;20025;-66
2022/01/24 07:53:06;;;;;;;9.18;2.50;;;;;;;;;;4984662;28;20051;-67
2022/01/24 07:55:33;;;;;;;8.07;2.38;;;;;;;;;;4983891;28;20034;-67
2022/01/24 07:58:01;;;;;;;7.68;2.40;;;;;;;;;;4983501;28;20033;-66
2022/01/24 08:00:30;;;;;;;9.50;2.85;;;;;;;;;;4983575;28;20140;-66
2022/01/24 08:03:00;;;;;;;7.97;2.40;;;;;;;;;;4982116;28;20053;-66
2022/01/24 08:05:27;;;;;;;7.82;2.67;;;;;;;;;;4987607;28;20068;-66
2022/01/24 08:07:54;;;;;;;7.28;2.30;;;;;;;;;;4981259;28;20497;-66
2022/01/24 08:10:22;;;;;;;8.93;2.45;;;;;;;;;;4985378;28;20077;-68
2022/01/24 08:12:49;;;;;;;6.70;2.08;;;;;;;;;;4978433;28;20124;-66
2022/01/24 08:15:17;;;;;;;9.43;2.70;;;;;;;;;;4986119;28;20033;-66
2022/01/24 08:17:45;;;;;;;8.30;2.33;;;;;;;;;;4985735;28;20360;-67
2022/01/24 08:20:14;;;;;;;8.15;2.35;;;;;;;;;;4982986;28;20045;-67
2022/01/24 08:22:44;;;;;;;6.97;2.35;;;;;;;;;;4983389;28;20029;-66
2022/01/24 08:25:12;;;;;;;7.60;2.17;;;;;;;;;;4985105;28;20025;-66
2022/01/24 08:27:40;;;;;;;7.88;2.30;;;;;;;;;;4985277;28;20033;-67
2022/01/24 08:30:09;;;;;;;9.52;3.10;;;;;;;;;;4996172;28;20063;-68
2022/01/24 08:32:41;;;;;;;11.02;3.58;;;;;;;;;;4963233;28;20041;-67
2022/01/24 08:35:10;;;;;;;9.70;3.53;;;;;;;;;;4957441;28;20380;-67
2022/01/24 08:37:41;;;;;;;9.05;3.25;;;;;;;;;;4985062;28;20767;-67
2022/01/24 08:40:19;;;;;;;8.68;3.03;;;;;;;;;;4964629;28;20595;-67
2022/01/24 08:42:55;;;;;;;8.80;2.75;;;;;;;;;;4977791;28;20034;-67
2022/01/24 08:45:46;;;;;;;9.82;3.10;;;;;;;;;;4988615;28;20556;-67
2022/01/24 08:48:17;;;;;;;8.10;2.72;;;;;;;;;;4985466;28;20045;-66
2022/01/24 08:50:50;;;;;;;12.10;2.97;;;;;;;;;;4969639;28;20052;-66
2022/01/24 08:53:18;;;;;;;8.85;2.60;;;;;;;;;;4989165;28;20364;-66
2022/01/24 08:55:47;;;;;;;8.85;3.05;;;;;;;;;;4986117;28;20034;-66
2022/01/24 08:58:15;;;;;;;9.27;2.65;;;;;;;;;;4985026;28;20035;-66
2022/01/24 09:00:44;;;;;;;10.10;3.28;;;;;;;;;;4984667;28;20032;-66
2022/01/24 09:03:11;;;;;;;10.80;4.18;;;;;;;;;;4983793;28;20141;-66
2022/01/24 09:05:40;;;;;;;14.55;4.82;;;;;;;;;;4987477;28;20492;-66
2022/01/24 09:08:10;;;;;;;10.48;4.07;;;;;;;;;;4979832;28;20839;-66
2022/01/24 09:10:39;;;;;;;10.90;4.38;;;;;;;;;;4959849;28;20112;-67
2022/01/24 09:13:08;;;;;;;9.57;3.83;;;;;;;;;;4956543;28;20552;-66
2022/01/24 09:15:35;;;;;;;10.68;4.28;;;;;;;;;;4960997;28;20030;-67
2022/01/24 09:18:08;;;;;;;14.13;5.85;;;;;;;;;;4957386;28;20755;-68
2022/01/24 09:20:38;;;;;;;15.25;6.22;;;;;;;;;;4960789;28;20069;-68
2022/01/24 09:23:10;;;;;;;13.27;5.53;;;;;;;;;;4953035;28;20034;-68
2022/01/24 09:25:40;;;;;;;11.07;4.63;;;;;;;;;;4958408;28;20053;-67
2022/01/24 09:28:09;;;;;;;13.80;6.68;;;;;;;;;;4952621;28;20037;-67
2022/01/24 09:30:38;;;;;;;18.38;7.15;;;;;;;;;;4959717;28;20062;-66
2022/01/24 09:33:06;;;;;;;16.98;7.30;;;;;;;;;;4953515;28;20034;-67
2022/01/24 09:35:35;;;;;;;14.25;6.40;;;;;;;;;;4961410;28;20580;-67
2022/01/24 09:38:03;;;;;;;13.63;5.65;;;;;;;;;;4974382;28;20110;-67
2022/01/24 09:40:31;;;;;;;12.38;6.63;;;;;;;;;;4959703;28;20071;-67
2022/01/24 09:42:59;;;;;;;12.82;6.60;;;;;;;;;;4939056;28;20034;-67
2022/01/24 09:45:26;;;;;;;14.43;7.32;;;;;;;;;;4959822;28;20077;-67
2022/01/24 09:47:55;;;;;;;;;;;;;;;;;;4978144;28;20130;-67
2022/01/24 09:50:23;;;;;;;14.77;7.05;;;;;;;;;;4986355;28;19960;-68
2022/01/24 09:52:52;;;;;;;13.30;6.70;;;;;;;;;;4987568;28;20022;-66
2022/01/24 09:55:22;;;;;;;14.10;6.70;;;;;;;;;;4986262;28;20063;-67
2022/01/24 09:57:50;;;;;;;13.30;6.50;;;;;;;;;;4984986;28;20026;-67
2022/01/24 10:00:22;;;;;;;13.50;5.88;;;;;;;;;;4984653;28;20038;-66
2022/01/24 10:02:51;;;;;;;10.43;5.28;;;;;;;;;;4984505;28;20172;-67
2022/01/24 10:05:23;;;;;;;13.25;5.45;;;;;;;;;;4988890;28;20347;-67
2022/01/24 10:07:57;;;;;;;12.43;5.90;;;;;;;;;;4979222;28;20038;-67
2022/01/24 10:10:43;;;;;;;12.90;5.70;;;;;;;;;;4985857;28;20656;-67
2022/01/24 10:16:30;;;;;;;10.02;4.85;;;;;;;;;;4988847;28;20508;-67
2022/01/24 10:19:11;;;;;;;11.30;5.10;;;;;;;;;;4980799;28;20049;-67
2022/01/24 10:21:42;;;;;;;11.02;5.57;;;;;;;;;;4986239;28;20080;-67
2022/01/24 10:24:16;;;;;;;10.40;4.80;;;;;;;;;;4985258;28;20161;-66
2022/01/24 10:26:42;;;;;;;11.85;5.07;;;;;;;;;;4970157;28;20080;-67
2022/01/24 10:29:13;;;;;;;10.73;5.03;;;;;;;;;;4983923;28;20030;-67
2022/01/24 10:31:49;;;;;;;11.15;5.10;;;;;;;;;;4992126;28;20053;-67
2022/01/24 10:34:34;;;;;;;11.20;4.75;;;;;;;;;;4980692;28;20032;-67
2022/01/24 10:37:02;;;;;;;11.93;5.57;;;;;;;;;;4979404;28;20065;-67
2022/01/24 10:39:34;;;;;;;11.40;4.68;;;;;;;;;;4981091;28;20162;-67
2022/01/24 10:42:41;;;;;;;11.65;4.60;;;;;;;;;;4983751;28;20160;-69
2022/01/24 10:45:21;;;;;;;12.73;5.53;;;;;;;;;;4999380;28;20041;-68
2022/01/24 10:47:50;;;;;;;12.38;6.10;;;;;;;;;;4983050;28;20041;-67
2022/01/24 10:50:30;;;;;;;10.80;4.88;;;;;;;;;;5002355;28;20140;-69
2022/01/24 10:52:58;;;;;;;14.02;5.22;;;;;;;;;;4998666;28;20065;-67
2022/01/24 10:55:28;;;;;;;11.07;4.80;;;;;;;;;;5000697;28;20591;-67
2022/01/24 10:58:23;;;;;;;12.40;4.63;;;;;;;;;;4968516;28;20042;-68
2022/01/24 11:00:53;;;;;;;10.57;5.05;;;;;;;;;;4998435;28;20044;-68
2022/01/24 11:03:20;;;;;;;10.70;4.82;;;;;;;;;;4984262;28;20053;-68
2022/01/24 11:05:49;;;;;;;11.57;4.32;;;;;;;;;;4982148;28;20096;-67
2022/01/24 11:08:18;;;;;;;9.68;4.20;;;;;;;;;;4983112;28;20049;-68
2022/01/24 11:10:46;;;;;;;11.70;4.70;;;;;;;;;;4987383;28;20049;-68
2022/01/24 11:13:13;;;;;;;10.60;4.57;;;;;;;;;;5000719;28;20064;-67
2022/01/24 11:15:55;;;;;;;10.40;4.63;;;;;;;;;;4979317;28;20175;-68
2022/01/24 11:18:22;;;;;;;11.02;4.60;;;;;;;;;;4970046;28;20041;-68
2022/01/24 11:20:49;;;;;;;10.88;4.75;;;;;;;;;;4977830;28;20037;-67
2022/01/24 11:23:21;;;;;;;11.40;4.20;;;;;;;;;;4983749;28;20045;-68
2022/01/24 11:25:49;;;;;;;9.73;4.20;;;;;;;;;;4979505;28;20048;-67
2022/01/24 11:28:18;;;;;;;11.38;3.95;;;;;;;;;;4981868;28;20076;-68
2022/01/24 11:30:46;;;;;;;12.52;4.30;;;;;;;;;;4984839;28;20037;-68
2022/01/24 11:33:15;;;;;;;11.18;3.92;;;;;;;;;;4981660;28;20061;-67
2022/01/24 11:35:50;;;;;;;9.52;3.88;;;;;;;;;;4985512;28;20025;-66
2022/01/24 11:38:26;;;;;;;10.90;4.10;;;;;;;;;;4983792;28;20092;-66
2022/01/24 11:40:59;;;;;;;11.05;4.15;;;;;;;;;;4978836;28;20026;-68
2022/01/24 11:43:26;;;;;;;9.57;4.25;;;;;;;;;;4982639;28;20034;-66
2022/01/24 11:46:08;;;;;;;8.93;3.50;;;;;;;;;;4980812;28;20057;-68
2022/01/24 11:48:37;;;;;;;9.38;3.22;;;;;;;;;;4984172;28;20038;-66
2022/01/24 11:51:06;;;;;;;10.95;3.90;;;;;;;;;;4982512;28;20033;-66
2022/01/24 11:53:38;;;;;;;10.27;4.15;;;;;;;;;;4984657;28;20054;-66
2022/01/24 11:56:25;;;;;;;11.02;4.03;;;;;;;;;;4983989;28;20080;-66
2022/01/24 11:58:55;;;;;;;11.60;4.70;;;;;;;;;;4978242;28;20038;-67
2022/01/24 12:01:37;;;;;;;12.48;5.25;;;;;;;;;;4984081;28;20026;-67
2022/01/24 12:04:05;;;;;;;11.90;5.38;;;;;;;;;;4991283;28;20030;-66
2022/01/24 12:06:33;;;;;;;13.48;5.00;;;;;;;;;;4979777;28;20129;-66
2022/01/24 12:09:07;;;;;;;12.52;5.03;;;;;;;;;;4976017;28;20053;-68
2022/01/24 12:11:36;;;;;;;10.70;4.70;;;;;;;;;;4986057;28;20022;-67
2022/01/24 12:14:23;;;;;;;11.80;4.68;;;;;;;;;;4980161;28;20064;-67
2022/01/24 12:16:54;;;;;;;11.35;4.55;;;;;;;;;;4977949;28;20055;-70
2022/01/24 12:19:31;;;;;;;11.25;4.35;;;;;;;;;;4984267;28;20843;-68
2022/01/24 12:22:25;;;;;;;10.35;3.90;;;;;;;;;;4978424;28;21346;-69
2022/01/24 12:24:53;;;;;;;12.73;6.93;;;;;;;;;;4983820;28;20056;-67
2022/01/24 12:27:22;;;;;;;12.60;7.60;;;;;;;;;;4983433;28;20065;-67
2022/01/24 12:29:51;;;;;;;12.77;7.53;;;;;;;;;;4981329;28;20576;-67
2022/01/24 12:32:30;;;;;;;11.95;5.70;;;;;;;;;;5001113;28;20037;-66
2022/01/24 12:34:57;;;;;;;10.95;5.50;;;;;;;;;;4980333;28;20037;-67
2022/01/24 12:37:32;;;;;;;12.35;6.13;;;;;;;;;;4981186;28;20026;-66
2022/01/24 12:40:19;;;;;;;13.68;5.97;;;;;;;;;;4979439;28;20030;-68
2022/01/24 12:42:57;;;;;;;9.35;4.32;;;;;;;;;;4979370;28;20038;-66
2022/01/24 12:48:14;;;;;;;9.60;3.58;;;;;;;;;;4982368;28;20467;-67
2022/01/24 12:50:46;;;;;;;11.68;4.28;;;;;;;;;;4984326;28;20092;-66
2022/01/24 12:53:16;;;;;;;9.65;4.00;;;;;;;;;;4984858;28;20112;-66
2022/01/24 12:55:43;;;;;;;12.73;6.20;;;;;;;;;;5003022;28;20041;-67
2022/01/24 12:58:11;;;;;;;10.48;4.85;;;;;;;;;;4967126;28;20817;-66
2022/01/24 13:00:44;;;;;;;14.43;7.10;;;;;;;;;;5005657;28;20041;-66
2022/01/24 13:03:14;;;;;;;10.80;4.28;;;;;;;;;;5002120;28;20029;-66
2022/01/24 13:05:41;;;;;;;10.60;4.18;;;;;;;;;;5000280;28;20030;-66
2022/01/24 13:08:14;;;;;;;10.48;4.13;;;;;;;;;;4980942;28;20053;-66
2022/01/24 13:10:47;;;;;;;9.57;4.18;;;;;;;;;;4998828;28;20041;-66
2022/01/24 13:13:16;;;;;;;9.98;4.10;;;;;;;;;;5001259;28;20623;-66
2022/01/24 13:21:27;;;;;;;11.98;5.25;;;;;;;;;;5000075;28;20044;-66
2022/01/24 13:24:00;;;;;;;12.38;5.47;;;;;;;;;;4998604;28;20041;-70
2022/01/24 13:26:30;;;;;;;20.85;11.75;;;;;;;;;;4988368;28;20762;-67
2022/01/24 13:29:08;;;;;;;11.73;5.50;;;;;;;;;;5000565;28;20740;-67
2022/01/24 13:31:36;;;;;;;10.52;4.35;;;;;;;;;;5006071;28;20053;-66
2022/01/24 13:34:08;;;;;;;9.80;4.00;;;;;;;;;;5002729;28;20037;-66
2022/01/24 13:36:38;;;;;;;10.65;4.10;;;;;;;;;;5007644;28;20033;-66
2022/01/24 13:39:06;;;;;;;9.88;3.40;;;;;;;;;;4998145;28;20041;-68
2022/01/24 13:41:34;;;;;;;9.88;4.20;;;;;;;;;;4986708;28;20709;-68
2022/01/24 13:44:13;;;;;;;10.38;3.80;;;;;;;;;;4984732;28;20045;-67
2022/01/24 13:46:44;;;;;;;14.95;6.80;;;;;;;;;;4988830;28;20536;-67
2022/01/24 13:49:12;;;;;;;15.27;6.85;;;;;;;;;;4982330;28;20099;-69
2022/01/24 13:52:04;;;;;;;12.35;5.32;;;;;;;;;;4990944;28;20049;-68
2022/01/24 13:54:34;;;;;;;17.42;8.23;;;;;;;;;;4988947;28;20029;-67
2022/01/24 13:57:09;;;;;;;14.27;6.97;;;;;;;;;;4981496;28;20117;-65
2022/01/24 13:59:37;;;;;;;12.30;6.30;;;;;;;;;;5000254;28;20063;-66
2022/01/24 14:02:26;;;;;;;12.45;5.85;;;;;;;;;;4983352;28;20131;-66
2022/01/24 14:04:57;;;;;;;13.30;5.47;;;;;;;;;;4981017;28;20038;-67
2022/01/24 14:07:29;;;;;;;9.50;4.13;;;;;;;;;;4984253;28;20393;-68
2022/01/24 14:09:59;;;;;;;9.98;4.05;;;;;;;;;;4982768;28;20042;-67
2022/01/24 14:12:41;;;;;;;11.85;4.95;;;;;;;;;;5004728;28;20041;-67
2022/01/24 14:21:05;;;;;;;11.48;4.97;;;;;;;;;;5004491;28;20076;-68
2022/01/24 14:23:42;;;;;;;12.27;5.75;;;;;;;;;;5001470;28;20034;-68
2022/01/24 14:26:15;;;;;;;11.93;5.57;;;;;;;;;;4986482;28;20168;-68
2022/01/24 14:28:48;;;;;;;11.15;5.53;;;;;;;;;;5003384;28;20071;-70
2022/01/24 14:31:18;;;;;;;10.52;5.70;;;;;;;;;;5005291;28;20026;-70
2022/01/24 14:33:48;;;;;;;10.70;4.80;;;;;;;;;;4999461;28;20577;-72
2022/01/24 14:36:18;;;;;;;11.35;4.13;;;;;;;;;;5003496;28;20599;-70
2022/01/24 14:39:02;;;;;;;11.68;4.50;;;;;;;;;;4988759;28;20037;-70
2022/01/24 14:41:32;;;;;;;11.15;4.63;;;;;;;;;;5002854;28;20044;-70
2022/01/24 14:46:47;;;;;;;10.57;4.53;;;;;;;;;;5004958;28;20263;-71
2022/01/24 14:49:19;;;;;;;9.85;4.32;;;;;;;;;;4987616;28;20044;-70
2022/01/24 14:51:48;;;;;;;10.05;4.50;;;;;;;;;;5000114;28;20124;-70
2022/01/24 14:54:18;;;;;;;10.02;4.60;;;;;;;;;;5002698;28;20021;-71
2022/01/24 14:56:46;;;;;;;10.23;4.60;;;;;;;;;;4980434;28;20100;-70
2022/01/24 14:59:14;;;;;;;10.52;4.45;;;;;;;;;;4980789;28;20037;-70
2022/01/24 15:01:42;;;;;;;11.45;4.60;;;;;;;;;;4982840;28;20033;-68
2022/01/24 15:04:09;;;;;;;10.93;4.45;;;;;;;;;;4977153;28;20489;-67
2022/01/24 15:06:38;;;;;;;12.52;4.88;;;;;;;;;;4967099;28;20034;-68
2022/01/24 15:09:10;;;;;;;11.23;4.88;;;;;;;;;;4992547;28;20057;-69
2022/01/24 15:11:38;;;;;;;10.02;4.43;;;;;;;;;;4978621;28;20045;-68
2022/01/24 15:14:15;;;;;;;10.27;4.45;;;;;;;;;;4977317;28;20038;-67
2022/01/24 15:17:02;;;;;;;9.73;3.70;;;;;;;;;;4982005;28;20052;-69
2022/01/24 15:27:38;;;;;;;9.20;3.10;;;;;;;;;;4982101;28;20046;-67
2022/01/24 15:30:11;;;;;;;7.85;3.20;;;;;;;;;;4971176;28;21814;-70
2022/01/24 15:32:37;;;;;;;10.73;4.30;;;;;;;;;;4983475;28;20041;-67
2022/01/24 15:35:03;;;;;;;;;;;;;;;;;;4978561;28;20042;-70
2022/01/24 15:37:34;;;;;;;10.95;4.75;;;;;;;;;;4978116;28;20076;-71
2022/01/24 15:40:04;;;;;;;9.43;3.78;;;;;;;;;;4977608;28;20786;-69
2022/01/24 15:42:55;;;;;;;10.73;3.78;;;;;;;;;;4980583;28;21406;-70
2022/01/24 15:45:56;;;;;;;8.13;3.15;;;;;;;;;;4980289;28;20057;-69
2022/01/24 15:48:25;;;;;;;8.63;3.10;;;;;;;;;;4973252;28;20073;-69
2022/01/24 15:50:52;;;;;;;9.93;4.38;;;;;;;;;;4973717;28;20030;-69
2022/01/24 15:53:20;;;;;;;17.85;10.82;;;;;;;;;;4980237;28;20196;-69
2022/01/24 15:56:15;;;;;;;19.17;12.55;;;;;;;;;;4977965;28;20227;-69
2022/01/24 15:58:42;;;;;;;13.80;7.90;;;;;;;;;;4980204;28;20165;-69
2022/01/24 16:01:10;;;;;;;11.02;5.85;;;;;;;;;;4974478;28;20112;-70
2022/01/24 16:03:39;;;;;;;9.43;4.25;;;;;;;;;;4976620;28;20034;-71
2022/01/24 16:06:06;;;;;;;10.40;4.65;;;;;;;;;;4973315;28;20034;-69
2022/01/24 16:08:35;;;;;;;9.00;3.80;;;;;;;;;;4981069;28;20034;-69
2022/01/24 16:11:06;;;;;;;8.98;3.53;;;;;;;;;;4976790;28;20030;-69
2022/01/24 16:13:35;;;;;;;8.93;3.53;;;;;;;;;;4983644;28;20030;-69
2022/01/24 16:16:04;;;;;;;9.88;4.03;;;;;;;;;;4978035;28;20043;-69
2022/01/24 16:18:38;;;;;;;11.15;5.03;;;;;;;;;;4981332;28;20596;-69
2022/01/24 16:26:42;;;;;;;27.65;16.08;;;;;;;;;;4960554;28;20274;-69
2022/01/24 16:29:09;;;;;;;24.20;12.27;;;;;;;;;;4940995;28;20050;-70
2022/01/24 16:31:36;;;;;;;16.65;7.95;;;;;;;;;;4948710;28;20034;-69
2022/01/24 16:34:06;;;;;;;14.00;6.70;;;;;;;;;;4947686;28;20045;-71
2022/01/24 16:36:33;;;;;;;13.27;5.55;;;;;;;;;;4959197;28;20037;-70
2022/01/24 16:39:05;;;;;;;12.77;5.53;;;;;;;;;;4953871;28;20042;-70
2022/01/24 16:41:54;;;;;;;16.70;6.60;;;;;;;;;;4957674;28;20978;-70
2022/01/24 16:44:40;;;;;;;14.15;6.75;;;;;;;;;;4943446;28;20034;-70
2022/01/24 16:47:13;;;;;;;15.60;6.75;;;;;;;;;;4939371;28;20058;-70
2022/01/24 16:49:46;;;;;;;14.70;6.68;;;;;;;;;;4949863;28;20625;-69
2022/01/24 16:52:14;;;;;;;14.88;6.80;;;;;;;;;;4942257;28;20050;-71
2022/01/24 16:54:44;;;;;;;12.77;5.70;;;;;;;;;;4942731;28;20556;-70
2022/01/24 16:57:12;;;;;;;12.02;5.13;;;;;;;;;;4941037;28;20038;-70
2022/01/24 16:59:40;;;;;;;10.55;4.97;;;;;;;;;;4961638;28;20073;-70